Tiempo atmosférico en la estación meteorológica de Talavera De La Reina, Toledo (372 m.)



Fecha
DESCASC
Temp. máxima en grados centígrados (hora)
DESCASC
Temp. mínima en grados centígrados (hora)
DESCASC
Temp. media en grados centígrados
DESCASC
Racha de viento máxima en m/sg (hora)
DESCASC
Velocidad máxima media en intervalos de 10 minutos(hora)
DESCASC
Precipitaciones diarias en mm
DESCASC
Precipitaciones de 00:00 a 06:00 en mm
DESCASC
Precipitaciones de 06:00 a 12:00 en mm
DESCASC
Precipitaciones de 12:00 a 18:00 en mm
DESCASC
Precipitaciones de 18:00 a 24:00 en mm
DESCASC
21-02-2021 11.1 (13:50) 7.1 (23:50) 9.1 8.33 (12:50) 4.44 (13:00) 9.8 0 0.2 7.2 2.4
20-02-2021 18.6 (15:40) 3.5 (02:30) 11.1 8.61 (16:30) 4.72 (18:20) 0 0 0 0 0
19-02-2021 20 (16:50) 3 (08:20) 11.5 8.89 (16:50) 4.72 (16:50) 0 0 0 0 0
18-02-2021 17.7 (16:30) 2.2 (00:00) 10 6.94 (15:50) 4.17 (15:00) 0 0 0 0 0
17-02-2021 18.9 (17:00) 2.9 (00:00) 10.9 5 (09:50) 3.06 (11:40) 0 0 0 0 0
16-02-2021 17.8 (17:00) 4.6 (00:00) 11.2 7.22 (11:10) 3.61 (11:10) 0 0 0 0 0
15-02-2021 16.2 (16:30) 7.3 (00:00) 11.8 10.56 (12:30) 6.11 (12:40) 0 0 0 0 0
14-02-2021 17.5 (15:50) 3.4 (00:00) 10.5 8.61 (12:00) 4.44 (12:20) 0 0 0 0 0
13-02-2021 16.6 (17:40) 2 (00:00) 9.3 8.06 (14:10) 5 (13:50) 0 0 0 0 0
12-02-2021 16.5 (15:00) 5.8 (00:00) 11.2 11.11 (06:50) 6.67 (06:00) 3.8 3.6 0.2 0 0
11-02-2021 14.4 (16:20) 8.9 (00:00) 11.6 5.83 (16:30) 3.61 (16:00) 0.6 0 0 0 0.6
10-02-2021 15.3 (16:10) 8.1 (00:00) 11.7 18.61 (04:50) 11.11 (05:40) 1.6 1.6 0 0 0
09-02-2021 11.2 (14:30) 7.6 (00:00) 9.4 19.17 (14:50) 12.22 (15:00) 14.5 0.2 3.8 10.3 0.2
08-02-2021 12.6 (16:20) 7.3 (00:00) 10 17.5 (17:50) 11.11 (17:40) 17.6 17 0.6 0 0
07-02-2021 12.5 (15:00) 6.8 (00:00) 9.7 12.78 (15:50) 9.17 (15:40) 2.2 0.2 0 0 2
06-02-2021 13.8 (16:40) 6.9 (00:00) 10.4 6.39 (14:20) 4.44 (15:20) 7.6 0.4 1 0.2 6
05-02-2021 -- (--) -- (--) -- -- (--) -- (--) -- -- -- 0 0.8
04-02-2021 -- (--) -- (--) -- -- (--) -- (--) -- 0.6 0 -- --
03-02-2021 13 (15:20) 10.1 (00:00) 11.6 9.72 (22:00) 5.83 (22:00) 1 0 0.2 0 0.8
02-02-2021 14.9 (15:10) 6.1 (00:50) 10.5 9.44 (12:40) 6.39 (12:40) 0 0 0 0 0
01-02-2021 15.4 (15:10) 6.9 (00:00) 11.1 15.56 (15:20) 10.83 (14:40) 0 0 0 0 0
31-01-2021 14.8 (17:30) 7.4 (00:00) 11.1 16.67 (21:00) 10.83 (21:20) 0 0 0 0 0
30-01-2021 14.3 (14:40) 9 (00:00) 11.7 19.72 (16:00) 12.78 (16:10) 1.8 0.4 1.4 0 0
29-01-2021 15.2 (15:30) 10.3 (00:00) 12.8 8.89 (21:20) 5.28 (21:20) 0 0 0 0 0
28-01-2021 14.9 (16:10) 7.6 (00:00) 11.2 3.89 (17:40) 2.5 (00:20) 0 0 0 0 0
27-01-2021 17 (17:10) 10.4 (00:00) 13.7 6.67 (02:30) 4.44 (06:10) 0 0 0 0 0
26-01-2021 15.4 (15:20) 12.6 (00:00) 14 10 (04:50) 5.83 (02:50) 0 0 0 0 0
25-01-2021 16.3 (16:50) 10 (00:00) 13.1 17.22 (14:40) 10.56 (14:40) 2.8 0.2 2.6 0 0

Gráficas

Temp. máximas Temp. mínimas Temp. medias Precipitaciones Rachas de viento máximas Velocidades máximas media en intervalos de 10 minutos

Datos horarios

Fecha y hora oficial Temperatura (ºC) Velocidad del viento (km/h) Dirección del viento Racha (km/h) Dirección de racha Precipitación (mm) Presión (hPa) Tendencia (hPa) Humedad (%)
2021-02-23 23:00:00 7.5 7 Este 12 Nordeste 0 989.3 1.4 81
2021-02-23 22:00:00 8.4 6 Este 11 Este 0 988.9 1.3 76
2021-02-23 21:00:00 9.4 8 Este 12 Nordeste 0 988.5 1.1 72
2021-02-23 20:00:00 10.9 7 Este 15 Nordeste 0 987.9 0.4 66
2021-02-23 19:00:00 13.7 9 Este 19 Nordeste 0 987.6 -- 56
2021-02-23 18:00:00 15.1 13 Este 24 Este 0 987.4 -- 49
2021-02-23 17:00:00 15.8 12 Este 24 Este 0 987.5 -- 45
2021-02-23 16:00:00 15.6 12 Este 22 Este 0 987.6 -- 44
2021-02-23 15:00:00 15.2 9 Este 21 Nordeste 0 988.1 -- 50
2021-02-23 14:00:00 13.7 10 Este 23 Nordeste 0 988.9 -- 57
2021-02-23 13:00:00 12.1 13 Este 28 Este 0 989.4 -- 65
2021-02-23 12:00:00 9.9 12 Este 23 Este 0 989.6 -- 71
2021-02-23 11:00:00 7 10 Este 20 Este 0 989.3 -- 77
2021-02-23 10:00:00 3.8 11 Este 17 Este 0 988.5 -- 85
2021-02-23 09:00:00 1.1 8 Este 12 Nordeste 0 987.6 -- 91
2021-02-23 08:00:00 0.5 8 Este 13 Nordeste 0 986.6 -- 91
2021-02-23 07:00:00 0.8 7 Este 12 Nordeste 0 986 -- 91
2021-02-23 06:00:00 1.2 9 Este 13 Nordeste 0 985.4 -- 91
2021-02-23 05:00:00 1.5 7 Este 14 Este 0 984.9 -- 90
2021-02-23 04:00:00 1.9 9 Este 14 Este 0 984.5 -- 89
2021-02-23 03:00:00 2.1 6 Este 11 Este 0 984.1 -- 88
2021-02-23 02:00:00 2.3 7 Este 12 Este 0 983.8 -- 89
2021-02-23 01:00:00 2 4 Este 6 Este 0 983.2 -- 89
2021-02-23 00:00:00 2.3 0 Calma 4 Nordeste 0 982.7 -- 86
2021-02-22 23:00:00 3.2 5 Nordeste 7 Nordeste 0 982 -- 85
2021-02-22 22:00:00 4.6 2 Sudoeste 7 Sudoeste 0 980.8 -- 75
2021-02-22 21:00:00 7 5 Sudoeste 9 Oeste 0 980 -- 66
2021-02-22 20:00:00 8.1 5 Oeste 9 Oeste 0 979.5 -- 67
2021-02-22 19:00:00 12 8 Oeste 22 Oeste 0 978.5 -- 50
2021-02-22 18:00:00 13.2 12 Oeste 27 Oeste 0 977.5 -- 44
2021-02-22 17:00:00 13.6 14 Oeste 28 Oeste 0 977 -- 49
2021-02-22 16:00:00 13.5 16 Oeste 28 Oeste 0 976.4 -- 45
2021-02-22 15:00:00 13.1 16 Oeste 30 Oeste 0 976.1 -- 48
2021-02-22 14:00:00 12.1 18 Oeste 27 Oeste 0 976.5 -- 55
2021-02-22 13:00:00 11.1 11 Oeste 23 Oeste 0 976.5 -- 57
2021-02-22 12:00:00 9.2 12 Oeste 21 Oeste 0 976.4 -- 65
2021-02-22 11:00:00 8 10 Oeste 18 Oeste 0 975.7 -- 73
2021-02-22 10:00:00 6.2 7 Sudoeste 13 Sudoeste 0 974.8 -- 82
2021-02-22 09:00:00 3.1 5 Oeste 9 Oeste 0 973.7 -- 91
2021-02-22 08:00:00 3.8 4 Sudoeste 11 Sudoeste 0 972.6 -- 87
2021-02-22 07:00:00 4.6 6 Sudoeste 19 Sudoeste 0 972 2.3 86
2021-02-22 06:00:00 5.7 9 Oeste 17 Oeste 0 970.8 -- 84
2021-02-22 05:00:00 6.3 6 Sudoeste 15 Sudoeste 0 970.1 -- 84
2021-02-22 04:00:00 6.8 8 Oeste 18 Oeste 0 969.7 -- 83
2021-02-22 03:00:00 7.1 10 Oeste 24 Sudoeste 0 969 -- 84
2021-02-22 02:00:00 7 8 Sudoeste 14 Sudoeste 0 968 -- 88
2021-02-22 01:00:00 7 6 Sudoeste 13 Sudoeste 0 967.4 -- 90
2021-02-22 00:00:00 7.1 3 Sudoeste 10 Sudoeste 0.2 966.8 -- 91
2021-02-21 23:00:00 7.2 8 Sudoeste 20 Noroeste 0.4 966.5 -- 91
2021-02-21 22:00:00 7.5 11 Oeste 20 Oeste 0.4 965.7 2.7 93
2021-02-21 21:00:00 7.3 6 Oeste 14 Sudoeste 0.4 964.7 -- 91
2021-02-21 20:00:00 7.5 10 Sudoeste 23 Sudoeste 0 963.9 -- 90
2021-02-21 19:00:00 8.1 8 Oeste 17 Oeste 1 963 -- 91
2021-02-21 18:00:00 8.2 15 Oeste 23 Oeste 3.4 962.4 -- 91
2021-02-21 17:00:00 8.5 16 Oeste 26 Oeste 2.4 961.6 -- 91
2021-02-21 16:00:00 10.8 9 Este 21 Este 0.4 960.7 -- 90
2021-02-21 15:00:00 10.7 10 Nordeste 22 Este 1 961 -- 89
2021-02-21 14:00:00 11.1 13 Este 26 Este 0 961.5 -- 81
2021-02-21 13:00:00 10.5 16 Este 30 Nordeste 0 962.3 -- 81
2021-02-21 12:00:00 10.3 12 Este 21 Nordeste 0.2 962.6 -- 80
2021-02-21 11:00:00 10.4 13 Este 24 Este 0 962.9 -- 72
2021-02-21 10:00:00 10.3 13 Este 26 Este 0 962.8 -- 71
2021-02-21 09:00:00 10.3 12 Este 23 Este 0 962.7 -- 70
2021-02-21 08:00:00 10.5 10 Este 22 Este 0 963.3 -- 70
2021-02-21 07:00:00 10.5 9 Este 22 Nordeste 0 963.4 -- 70
2021-02-21 06:00:00 10.6 13 Este 26 Este 0 963.6 -- 71
2021-02-21 05:00:00 10.7 13 Este 28 Nordeste 0 963.4 -- 71
2021-02-21 04:00:00 10.9 12 Este 23 Este 0 963.5 -- 67
2021-02-21 03:00:00 10 9 Este 19 Este 0 964 -- 63
2021-02-21 02:00:00 9.7 10 Este 15 Nordeste 0 964.6 -- 65
2021-02-21 01:00:00 10.7 9 Este 13 Este 0 965.4 -- 60
2021-02-21 00:00:00 10.4 6 Este 13 Nordeste 0 965.7 -- 61
2021-02-20 23:00:00 10.9 8 Este 12 Este 0 965.8 -- 57
2021-02-20 22:00:00 11.2 8 Este 12 Este 0 965.6 -- 53
2021-02-20 21:00:00 11 3 Nordeste 7 Este 0 966.3 -- 56
2021-02-20 20:00:00 12.5 0 Calma 10 Sudoeste 0 967 -- 48
2021-02-20 19:00:00 15.5 8 Sudoeste 30 Oeste 0 966.9 -- 32
2021-02-20 18:00:00 17.3 11 Sudoeste 27 Sudoeste 0 967.1 -- 27
2021-02-20 17:00:00 17.9 13 Sudoeste 31 Sudoeste 0 967.3 -- 28
2021-02-20 16:00:00 18 8 Sudoeste 22 Sudoeste 0 967.7 -- 33
2021-02-20 15:00:00 18.1 10 Sudoeste 20 Sudoeste 0 968.3 -- 32
2021-02-20 14:00:00 16.6 3 Norte 23 Sudoeste 0 969.3 -- 42
2021-02-20 13:00:00 16.1 5 Sudeste 14 Sudeste 0 970.5 -- 43
2021-02-20 12:00:00 13.7 8 Este 16 Este 0 971.1 -- 59
2021-02-20 11:00:00 10.3 10 Este 18 Este 0 971.5 -- 71
2021-02-20 10:00:00 7.2 7 Este 17 Este 0 971.8 -- 83
2021-02-20 09:00:00 4.4 8 Este 19 Este 0 971.2 0 89
2021-02-20 08:00:00 4.4 10 Este 16 Este 0 970.9 -- 90
2021-02-20 07:00:00 4.5 8 Este 17 Nordeste 0 971 -- 90
2021-02-20 06:00:00 4.8 9 Este 16 Nordeste 0 971.2 -- 90
2021-02-20 05:00:00 5 10 Este 14 Nordeste 0 971.2 -- 90
2021-02-20 04:00:00 5.2 10 Nordeste 13 Nordeste 0 971.8 -0.9 90
2021-02-20 03:00:00 4.2 6 Nordeste 10 Nordeste 0 972 -- 90
2021-02-20 02:00:00 4.5 2 Sudeste 8 Nordeste 0 972.4 -- 85
2021-02-20 01:00:00 5.9 3 Nordeste 16 Oeste 0 972.7 -- 83
2021-02-20 00:00:00 7.2 5 Este 8 Este 0 973 -- 84
2021-02-19 23:00:00 6.9 0 Calma 5 Noroeste 0 973.1 0 84
2021-02-19 22:00:00 8 4 Noroeste 8 Sur 0 973 -- 75
2021-02-19 21:00:00 10.9 4 Sur 10 Oeste 0 973.1 -- 69
2021-02-19 20:00:00 12 3 Oeste 9 Oeste 0 973.1 -- 65
2021-02-19 19:00:00 14.5 8 Oeste 14 Noroeste 0 972.8 -- 56
2021-02-19 18:00:00 16.9 10 Noroeste 20 Oeste 0 972.9 -- 51
2021-02-19 17:00:00 19.6 12 Sudoeste 32 Oeste 0 972.9 -1.8 31
2021-02-19 16:00:00 19.2 9 Oeste 18 Sudoeste 0 973.1 -- 34
2021-02-19 15:00:00 17.2 6 Nordeste 15 Nordeste 0 973.9 -- 47
2021-02-19 14:00:00 15.6 8 Este 20 Este 0 974.7 -- 51
2021-02-19 13:00:00 13.5 10 Este 21 Este 0 976 -- 57
2021-02-19 12:00:00 10.9 10 Este 19 Este 0 976.4 -- 70
2021-02-19 11:00:00 7.6 11 Este 18 Este 0 976.8 -- 82
2021-02-19 10:00:00 5.3 8 Este 14 Nordeste 0 976.8 -- 90
2021-02-19 09:00:00 3.3 6 Este 11 Este 0 976.5 -- 92
2021-02-19 08:00:00 3.3 6 Este 11 Este 0 976.2 -- 91
2021-02-19 07:00:00 3.5 8 Este 13 Este 0 976 -- 91
2021-02-19 06:00:00 3.8 8 Este 12 Nordeste 0 975.8 -- 91
2021-02-19 05:00:00 4.4 6 Este 16 Este 0 975.6 -- 91
2021-02-19 04:00:00 5.1 9 Este 14 Este 0 975.8 -- 91
2021-02-19 03:00:00 5.2 8 Este 11 Este 0 975.9 -- 90
2021-02-19 02:00:00 5.7 7 Este 13 Nordeste 0 976.1 -- 88
2021-02-19 01:00:00 6.5 8 Este 11 Este 0 976.2 -- 89
2021-02-19 00:00:00 6 5 Este 8 Este 0 976.4 -- 87
2021-02-18 23:00:00 6.7 3 Este 5 Este 0 976.4 -- 87
2021-02-18 22:00:00 7.6 2 Sudoeste 5 Noroeste 0 976.1 -- 85
2021-02-18 21:00:00 8.9 3 Oeste 6 Norte 0 975.8 -- 80
2021-02-18 20:00:00 11.5 3 Sur 9 Oeste 0 975.3 -- 67
2021-02-18 19:00:00 15 4 Oeste 15 Noroeste 0 974.8 -- 55
2021-02-18 18:00:00 16.6 10 Noroeste 24 Noroeste 0 974.6 -- 52
2021-02-18 17:00:00 17.5 9 Oeste 22 Oeste 0 974.5 -- 49
2021-02-18 16:00:00 17.2 14 Oeste 25 Oeste 0 974.5 -- 49
2021-02-18 15:00:00 16.7 15 Oeste 22 Oeste 0 974.8 -- 51
2021-02-18 14:00:00 15.5 8 Oeste 15 Oeste 0 975.8 -- 57
2021-02-18 13:00:00 13.8 4 Noroeste 9 Sur 0 976.2 -- 73
2021-02-18 12:00:00 9.7 5 Este 9 Este 0 976.5 -- 82
2021-02-18 11:00:00 7.3 2 Nordeste 12 Nordeste 0 976.3 -- 89
2021-02-18 10:00:00 5.3 7 Este 12 Este 0 976 -- 93
2021-02-18 09:00:00 3.6 8 Este 12 Nordeste 0 975.1 -- 94
2021-02-18 08:00:00 2.9 8 Este 12 Nordeste 0 974.7 -- 93
2021-02-18 07:00:00 3.2 6 Este 10 Este 0 974.7 -- 93
2021-02-18 06:00:00 2.2 3 Nordeste 4 Nordeste 0 974.8 -- 92
2021-02-18 05:00:00 3.9 3 Sudeste 8 Este 0 975.1 -- 92
2021-02-18 04:00:00 4.1 2 Este 8 Este 0 975.4 -- 92
2021-02-18 03:00:00 5.1 4 Nordeste 9 Nordeste 0 975.5 -- 92
2021-02-18 02:00:00 4.8 2 Este 8 Este 0 975.6 -- 89
2021-02-18 01:00:00 6.5 5 Este 8 Este 0 975.7 -- 91
2021-02-18 00:00:00 5.9 3 Nordeste 7 Nordeste 0 975.9 -- 89
2021-02-17 23:00:00 7.2 4 Este 6 Este 0 976 -- 88
2021-02-17 22:00:00 8.8 2 Sudeste 10 Sudoeste 0 975.9 -- 86
2021-02-17 21:00:00 9.4 3 Norte 7 Oeste 0 975.9 -- 83
2021-02-17 20:00:00 12.2 3 Oeste 4 Oeste 0 975.8 -- 76
2021-02-17 19:00:00 15.7 3 Sudeste 7 Sudeste 0 975.8 -- 60
2021-02-17 18:00:00 17.7 4 Sudeste 9 Sudeste 0 976 -- 52
2021-02-17 17:00:00 18.7 0 Calma 10 Oeste 0 976.6 -- 47
2021-02-17 16:00:00 17.6 3 Nordeste 8 Oeste 0 977.1 -- 50
2021-02-17 15:00:00 16.4 4 Este 10 Nordeste 0 978.1 -- 61
2021-02-17 14:00:00 15 5 Este 11 Este 0 979.2 -- 65
2021-02-17 13:00:00 13.3 6 Este 14 Este 0 980.2 -- 71
2021-02-17 12:00:00 11.8 9 Este 16 Nordeste 0 980.7 -- 75
2021-02-17 11:00:00 9 10 Este 17 Este 0 981 -- 85
2021-02-17 10:00:00 6.5 9 Este 18 Este 0 981 -- 93
2021-02-17 09:00:00 4 8 Este 12 Este 0 980.6 -- 93
2021-02-17 08:00:00 3.9 6 Este 9 Este 0 980.5 -- 93
2021-02-17 07:00:00 3 5 Este 6 Este 0 980.5 -- 92
2021-02-17 06:00:00 3.1 2 Norte 4 Noroeste 0 980.6 -- 92
2021-02-17 05:00:00 4.2 3 Sudeste 5 Sudeste 0 980.8 -- 92
2021-02-17 04:00:00 3.9 4 Norte 5 Norte 0 981.3 -- 91
2021-02-17 03:00:00 4.7 3 Sudeste 5 Nordeste 0 981.1 -- 91
2021-02-17 02:00:00 5.5 3 Sudeste 5 Norte 0 981.5 -- 90
2021-02-17 01:00:00 5.5 0 Calma 4 Noroeste 0 981.8 -- 89
2021-02-17 00:00:00 6.3 2 Oeste 5 Noroeste 0 982 -- 89
2021-02-16 23:00:00 6.9 3 Noroeste 4 Noroeste 0 982 -- 88
2021-02-16 22:00:00 8 0 Calma 5 Noroeste 0 982 -- 85
2021-02-16 21:00:00 9.1 4 Sudoeste 8 Sudoeste 0 981.9 -- 79
2021-02-16 20:00:00 11.4 2 Oeste 7 Oeste 0 981.7 -- 70
2021-02-16 19:00:00 14.2 5 Oeste 15 Noroeste 0 981.4 -- 62
2021-02-16 18:00:00 16.5 9 Noroeste 17 Noroeste 0 981.5 -- 54
2021-02-16 17:00:00 17.7 8 Noroeste 21 Noroeste 0 981.6 -- 47
2021-02-16 16:00:00 16.9 6 Oeste 15 Oeste 0 982.2 -- 48
2021-02-16 15:00:00 16.2 3 Sudoeste 12 Este 0 982.9 -- 50
2021-02-16 14:00:00 13.8 7 Nordeste 17 Este 0 983.7 -- 64
2021-02-16 13:00:00 12.3 9 Este 21 Este 0 984.7 -- 68
2021-02-16 12:00:00 10.9 9 Este 26 Este 0 985 -- 74
2021-02-16 11:00:00 9.1 12 Este 22 Este 0 985 -- 78
2021-02-16 10:00:00 6.7 10 Nordeste 17 Este 0 984.7 -- 86
2021-02-16 09:00:00 4.8 8 Este 16 Este 0 984.3 -- 90
2021-02-16 08:00:00 5.1 9 Este 17 Nordeste 0 983.9 -- 90
2021-02-16 07:00:00 5.3 10 Este 18 Este 0 983.5 -- 90
2021-02-16 06:00:00 5.6 10 Nordeste 17 Nordeste 0 983.9 -- 89
2021-02-16 05:00:00 6.1 9 Este 15 Este 0 984 -- 88
2021-02-16 04:00:00 7.2 7 Este 16 Este 0 984.6 -- 85
2021-02-16 03:00:00 7.6 9 Este 20 Este 0 984.9 -- 84
2021-02-16 02:00:00 8.4 9 Este 15 Este 0 985.2 -- 82
2021-02-16 01:00:00 8.6 9 Este 17 Este 0 985.4 -- 82
2021-02-16 00:00:00 8.2 5 Este 12 Nordeste 0 985.5 -- 83
2021-02-15 23:00:00 9.3 6 Este 13 Este 0 985.5 -- 81
2021-02-15 22:00:00 10.6 9 Este 15 Este 0 985.2 -- 79
2021-02-15 21:00:00 10.6 7 Este 12 Nordeste 0 985.1 -- 79
2021-02-15 20:00:00 11.8 5 Este 8 Nordeste 0 984.9 -- 73
2021-02-15 19:00:00 14.1 5 Este 25 Este 0 984.8 -- 66
2021-02-15 18:00:00 15.9 12 Este 25 Este 0 984.9 -- 58
2021-02-15 17:00:00 16.1 15 Este 28 Este 0 985.5 -- 56
2021-02-15 16:00:00 15.8 17 Este 32 Este 0 985.7 -- 57
2021-02-15 15:00:00 15.1 18 Este 35 Este 0 986.6 -- 61
2021-02-15 14:00:00 14.1 16 Este 37 Este 0 987.6 -- 65
2021-02-15 13:00:00 12.9 19 Este 38 Este 0 988.6 -- 66
2021-02-15 12:00:00 11.7 19 Este 37 Este 0 989 -- 69
2021-02-15 11:00:00 11 17 Este 31 Este 0 988.9 -- 74
2021-02-15 10:00:00 9.7 13 Este 26 Este 0 988.3 -- 79
2021-02-15 09:00:00 7.7 12 Este 25 Sudeste 0 987.8 -- 85
2021-02-15 08:00:00 7.7 12 Este 30 Este 0 987.1 -- 83
2021-02-15 07:00:00 8.1 14 Este 30 Sudeste 0 987.1 -- 82
2021-02-15 06:00:00 8.3 14 Este 28 Este 0 986.8 -- 82
2021-02-15 05:00:00 8.4 14 Este 25 Este 0 986.7 -- 82
2021-02-15 04:00:00 8.3 11 Este 24 Este 0 986.9 -- 82
2021-02-15 03:00:00 8.8 13 Este 22 Este 0 986.9 -- 80
2021-02-15 02:00:00 8.4 8 Este 18 Este 0 986.9 -- 82
2021-02-15 01:00:00 8 6 Este 17 Nordeste 0 986.7 -- 84
2021-02-15 00:00:00 8.1 6 Nordeste 10 Este 0 986.4 -- 83
2021-02-14 23:00:00 8.9 7 Nordeste 10 Este 0 986.2 -- 80
2021-02-14 22:00:00 9.9 4 Este 8 Este 0 985.8 -- 74
2021-02-14 21:00:00 11 5 Este 9 Este 0 985.5 -- 70
2021-02-14 20:00:00 12.3 4 Este 14 Este 0 985.1 -- 68
2021-02-14 19:00:00 15.1 7 Nordeste 18 Este 0 984.5 0 58
2021-02-14 18:00:00 16.6 8 Este 18 Nordeste 0 984.4 -0.4 48
2021-02-14 17:00:00 16.9 10 Este 19 Este 0 984.5 -- 50
2021-02-14 16:00:00 17.2 10 Este 21 Este 0 984.5 -- 46
2021-02-14 15:00:00 16.9 12 Este 23 Este 0 984.8 -- 52
2021-02-14 14:00:00 15.8 12 Este 25 Este 0 985.3 -- 52
2021-02-14 13:00:00 14.2 13 Este 30 Este 0 985.7 -- 62
2021-02-14 12:00:00 11.8 15 Este 31 Este 0 985.9 -- 70
2021-02-14 11:00:00 8.4 11 Este 23 Este 0 985.6 -- 85
2021-02-14 10:00:00 5.8 10 Este 21 Este 0 985.4 -- 91
2021-02-14 09:00:00 3.8 6 Este 9 Este 0 984.9 -- 93
2021-02-14 08:00:00 3.5 5 Este 11 Nordeste 0 984.5 -- 92
2021-02-14 07:00:00 3.5 6 Este 11 Este 0 984.1 -- 92
2021-02-14 06:00:00 3.9 9 Nordeste 13 Este 0 983.8 -- 92
2021-02-14 05:00:00 4.7 6 Este 12 Este 0 983.9 -- 90
2021-02-14 04:00:00 4.7 8 Este 14 Nordeste 0 984.1 -- 91
2021-02-14 03:00:00 4.9 6 Nordeste 10 Este 0 984 -- 90
2021-02-14 02:00:00 5.5 7 Este 10 Este 0 984.1 -- 91
2021-02-14 01:00:00 6 5 Este 11 Este 0 983.7 -- 90
2021-02-14 00:00:00 6 3 Sudeste 12 Nordeste 0 983.7 -- 89
2021-02-13 23:00:00 6.8 4 Este 11 Sur 0 983.8 -- 88
2021-02-13 22:00:00 7.2 2 Sudoeste 10 Sur 0 983.4 -- 87
2021-02-13 21:00:00 7.9 3 Oeste 8 Sudeste 0 983 -- 80
2021-02-13 20:00:00 10.8 2 Nordeste 6 Este 0 982.6 -- 71
2021-02-13 19:00:00 15 4 Noroeste 12 Oeste 0 982.4 -- 61
2021-02-13 18:00:00 16.2 8 Oeste 19 Oeste 0 981.7 -- 52
2021-02-13 17:00:00 16.4 10 Oeste 22 Oeste 0 981.8 -- 51
2021-02-13 16:00:00 16 15 Oeste 25 Oeste 0 982 -- 49
2021-02-13 15:00:00 15.3 13 Oeste 29 Oeste 0 982.6 -- 51
2021-02-13 14:00:00 14.2 14 Oeste 26 Oeste 0 982.9 -- 59
2021-02-13 13:00:00 12.8 9 Noroeste 23 Oeste 0 983.7 -- 75
2021-02-13 08:00:00 2.8 0 Calma 6 Noroeste 0 982.1 0.3 93
2021-02-13 07:00:00 2.2 3 Noroeste 6 Noroeste 0 982.3 0.6 93
2021-02-13 06:00:00 2.5 4 Noroeste 6 Oeste 0 982.3 0.7 92
2021-02-13 05:00:00 3.6 0 Calma 8 Este 0 981.8 0.1 92
2021-02-13 04:00:00 4.8 8 Este 10 Este 0 981.7 0.3 93
2021-02-13 03:00:00 4.6 3 Este 5 Este 0 981.6 0.2 92
2021-02-13 02:00:00 4.7 0 Calma 3 Este 0 981.7 0.6 91
2021-02-13 01:00:00 5.3 2 Nordeste 4 Este 0 981.4 0.9 91
2021-02-13 00:00:00 5.8 0 Calma 5 Este 0 981.4 1.1 89
2021-02-12 23:00:00 6.6 0 Calma 6 Sudeste 0 981.1 1.2 88
2021-02-12 22:00:00 7 4 Noroeste 9 Noroeste 0 980.5 1.2 86
2021-02-12 21:00:00 8.9 4 Noroeste 9 Sur 0 980.3 1.8 82
2021-02-12 20:00:00 11.3 4 Sudoeste 10 Sudoeste 0 979.9 1.4 72
2021-02-12 19:00:00 13.6 8 Oeste 25 Oeste 0 979.3 1.1 62
2021-02-12 18:00:00 15.8 15 Oeste 28 Oeste 0 978.5 0.2 56
2021-02-12 17:00:00 15.5 18 Oeste 34 Oeste 0 978.5 0 56
2021-02-12 16:00:00 16.3 22 Oeste 36 Oeste 0 978.2 -0.4 53
2021-02-12 15:00:00 16.4 19 Oeste 31 Noroeste 0 978.3 -0.1 57
2021-02-12 14:00:00 15.3 16 Oeste 32 Oeste 0 978.5 0.8 65
2021-02-12 13:00:00 14.4 19 Oeste 36 Oeste 0 978.6 1.7 71
2021-02-12 12:00:00 13.5 21 Noroeste 39 Oeste 0 978.4 2.4 78
2021-02-12 11:00:00 11.5 22 Oeste 34 Oeste 0 977.7 2.4 85
2021-02-12 10:00:00 10.4 10 Oeste 30 Oeste 0 976.9 2.1 90
2021-02-12 09:00:00 10 15 Oeste 33 Oeste 0 976 -- 91
2021-02-12 08:00:00 10.7 16 Oeste 36 Sudoeste 0 975.3 -- 89
2021-02-12 07:00:00 11.1 23 Oeste 40 Oeste 0.2 974.8 -- 91
2021-02-12 06:00:00 11.7 24 Oeste 39 Oeste 2.6 974.4 -- 93
2021-02-12 05:00:00 11.1 5 Oeste 10 Oeste 0.6 974.4 -- 94
2021-02-12 04:00:00 10.8 6 Oeste 13 Oeste 0.4 974.9 -- 95
2021-02-12 03:00:00 10.9 3 Sur 8 Sur 0 974.7 -- 94
2021-02-12 02:00:00 10.3 0 Calma 5 Noroeste 0 975.2 -- 94
2021-02-12 01:00:00 11.1 2 Nordeste 4 Este 0 975.2 -- 93
2021-02-12 00:00:00 11.7 0 Calma 5 Este 0 975.5 -- 93
2021-02-11 23:00:00 12.4 3 Sur 6 Sur 0 975.9 -- 93
2021-02-11 22:00:00 12.6 4 Oeste 12 Noroeste 0.2 976.2 -- 93
2021-02-11 21:00:00 12.8 9 Noroeste 14 Noroeste 0 976.1 -- 92
2021-02-11 20:00:00 13 6 Oeste 12 Noroeste 0.4 976.3 -- 92
2021-02-11 19:00:00 13.4 8 Oeste 14 Noroeste 0 975.9 -- 90
2021-02-11 18:00:00 13.7 8 Oeste 18 Oeste 0 975.9 -- 91
2021-02-11 17:00:00 14.2 9 Oeste 21 Noroeste 0 975.9 -- 87
2021-02-11 16:00:00 14 13 Oeste 19 Oeste 0 976.1 -- 87
2021-02-11 15:00:00 13.6 8 Noroeste 14 Noroeste 0 976.5 -- 91
2021-02-11 14:00:00 13.1 9 Noroeste 17 Noroeste 0 976.9 -- 91
2021-02-11 13:00:00 12.4 5 Oeste 10 Oeste 0 977.5 -- 93
2021-02-11 12:00:00 11.4 0 Calma 6 Oeste 0 977.4 -- 92
2021-02-11 11:00:00 10.9 4 Este 8 Este 0 977 -- 92
2021-02-11 10:00:00 10.4 3 Este 9 Nordeste 0 976.7 -- 93
2021-02-11 09:00:00 9.7 4 Nordeste 8 Nordeste 0 976.5 -- 93
2021-02-11 08:00:00 10 3 Este 5 Este 0 975.9 -- 92
2021-02-11 07:00:00 9.9 4 Nordeste 6 Nordeste 0 975.7 -- 92
2021-02-11 06:00:00 10.3 3 Sur 9 Oeste 0 975.5 -- 90
2021-02-11 05:00:00 10.1 6 Sudoeste 10 Oeste 0 975.7 -- 88
2021-02-11 04:00:00 10.2 0 Calma 4 Norte 0 975.9 -- 86
2021-02-11 03:00:00 9.9 0 Calma 4 Sur 0 975.9 -- 86
2021-02-11 02:00:00 9.8 2 Sudoeste 6 Noroeste 0 975.8 -- 84
2021-02-11 01:00:00 9.3 2 Sudeste 8 Oeste 0 975.3 -- 84
2021-02-11 00:00:00 8.9 5 Oeste 10 Oeste 0 974.9 -- 83
2021-02-10 23:00:00 8.8 8 Oeste 14 Oeste 0 974.5 -- 81
2021-02-10 22:00:00 8.6 8 Oeste 9 Oeste 0 973.9 -- 81
2021-02-10 21:00:00 10.5 5 Oeste 18 Oeste 0 973.4 -- 73
2021-02-10 20:00:00 10.3 6 Oeste 14 Oeste 0 972.9 -- 74
2021-02-10 19:00:00 11.9 12 Oeste 24 Oeste 0 972.1 -- 66
2021-02-10 18:00:00 14.5 19 Oeste 36 Oeste 0 971.4 -- 53
2021-02-10 17:00:00 14.8 24 Oeste 42 Oeste 0 970.9 -- 54
2021-02-10 16:00:00 15.2 22 Oeste 42 Noroeste 0 970.2 -- 52
2021-02-10 15:00:00 15 22 Noroeste 37 Oeste 0 970.4 -- 54
2021-02-10 14:00:00 14.2 23 Oeste 41 Oeste 0 970.3 -- 59
2021-02-10 13:00:00 13.4 27 Oeste 48 Oeste 0 969.9 -- 64
2021-02-10 12:00:00 12.7 27 Oeste 47 Oeste 0 969.1 -- 66
2021-02-10 11:00:00 11.7 22 Oeste 37 Oeste 0 967.9 -- 73
2021-02-10 10:00:00 10.1 19 Oeste 32 Oeste 0 966.7 -- 77
2021-02-10 09:00:00 9.4 19 Oeste 51 Oeste 0 965.3 -- 80
2021-02-10 08:00:00 9.8 35 Oeste 65 Oeste 0 963.6 -- 77
2021-02-10 07:00:00 10.2 32 Oeste 57 Oeste 0 963.2 -- 80
2021-02-10 06:00:00 10.4 36 Oeste 63 Oeste 0 962.2 -- 78
2021-02-10 05:00:00 10.1 34 Oeste 67 Oeste 0.4 961.3 -- 81
2021-02-10 04:00:00 9.2 32 Oeste 59 Oeste 1 961.1 -- 87
2021-02-10 03:00:00 9.9 27 Oeste 57 Oeste 0 961.8 -- 77
2021-02-10 02:00:00 9.2 18 Oeste 38 Oeste 0.2 962 -- 85
2021-02-10 01:00:00 9.4 21 Oeste 38 Oeste 0 962.5 -- 83
2021-02-10 00:00:00 9.6 19 Oeste 42 Oeste 0 962.3 -- 81
2021-02-09 23:00:00 9.3 20 Oeste 40 Oeste 0 962.3 -- 83
2021-02-09 22:00:00 9.8 30 Oeste 49 Oeste 0 961.9 -- 80
2021-02-09 21:00:00 10.4 23 Oeste 48 Sudoeste 0 961.1 -- 79
2021-02-09 20:00:00 10.4 22 Oeste 49 Oeste 0.2 960.8 -- 78
2021-02-09 19:00:00 10.5 19 Oeste 36 Oeste 0 960.3 -- 84
2021-02-09 18:00:00 10.8 16 Oeste 40 Oeste 0 960.4 -- 85
2021-02-09 17:00:00 11.1 24 Oeste 46 Oeste 1.2 960.4 -- 86
2021-02-09 16:00:00 9.8 17 Oeste 59 Oeste 2.4 960.6 -- 91
2021-02-09 15:00:00 10.1 44 Oeste 69 Oeste 1.6 960.1 -- 87
2021-02-09 14:00:00 10.7 -- -- -- -- -- 959.1 -- 86
2021-02-09 13:00:00 10.1 12 Sudoeste 36 Oeste 3.2 960.1 -- 88
2021-02-09 12:00:00 10.1 19 Sudoeste 40 Sudoeste 2 961.4 -- 85
2021-02-09 11:00:00 9.8 15 Sudoeste 35 Sudoeste 1 962 -- 85
2021-02-09 10:00:00 9.6 12 Sudoeste 29 Sudoeste 0.6 962.6 -- 86
2021-02-09 09:00:00 9.3 11 Oeste 23 Oeste 0.2 963 -- 86
2021-02-09 08:00:00 8.5 5 Sudoeste 11 Oeste 0 963.3 -- 89
2021-02-09 07:00:00 8.5 8 Oeste 14 Sudoeste 0 964 -- 89
2021-02-09 06:00:00 8.6 8 Sudoeste 19 Sudoeste 0 964.7 -- 88
2021-02-09 05:00:00 8.3 11 Oeste 24 Oeste 0.2 965.5 -- 90
2021-02-09 04:00:00 9.2 19 Oeste 35 Oeste 0 966 -- 80
2021-02-09 03:00:00 8.6 14 Oeste 20 Oeste 0 966.2 -- 84
2021-02-09 02:00:00 7.6 9 Oeste 24 Oeste 0 966.5 -- 84
2021-02-09 01:00:00 8.1 12 Oeste 28 Sudoeste 0 966.8 -- 78
2021-02-09 00:00:00 8.2 15 Oeste 33 Sudoeste 0 966.3 -- 77
2021-02-08 23:00:00 8.8 13 Oeste 33 Oeste 0 965.9 -- 77
2021-02-08 22:00:00 9.4 24 Oeste 39 Sudoeste 0 965.2 -- 74
2021-02-08 21:00:00 9.8 15 Oeste 36 Oeste 0 965 -- 73
2021-02-08 20:00:00 9.9 20 Oeste 41 Oeste 0 964 -- 74
2021-02-08 19:00:00 10.5 27 Oeste 51 Oeste 0 963 -- 70
2021-02-08 18:00:00 11.5 33 Oeste 63 Oeste 0 962.3 -- 67
2021-02-08 17:00:00 11.7 37 Oeste 60 Oeste 0 961.6 -- 67
2021-02-08 16:00:00 12.1 37 Oeste 59 Oeste 0 961.5 -- 65
2021-02-08 15:00:00 11.9 37 Oeste 60 Oeste 0 961.4 -- 68
2021-02-08 14:00:00 10.8 28 Oeste 46 Oeste 0 962 -- 79
2021-02-08 13:00:00 10.1 29 Oeste 57 Oeste 0 962.3 -- 79
2021-02-08 12:00:00 9.9 27 Oeste 51 Oeste 0 962.3 -- 83
2021-02-08 11:00:00 9.8 30 Oeste 48 Oeste 0 962.1 -- 82
2021-02-08 10:00:00 8.7 25 Oeste 39 Oeste 0 961.6 -- 85
2021-02-08 09:00:00 7.9 17 Oeste 30 Oeste 0 960.9 -- 88
2021-02-08 08:00:00 8.7 23 Oeste 45 Oeste 0.4 960.3 -- 90
2021-02-08 07:00:00 8.1 6 Oeste 16 Noroeste 0.2 959.6 -- 94
2021-02-08 06:00:00 8 8 Sudoeste 24 Sudoeste 2.4 959.3 -- 94
2021-02-08 05:00:00 7.9 2 Sudeste 6 Norte 4.6 960.1 -- 94
2021-02-08 04:00:00 7.8 4 Nordeste 8 Norte 3.4 960.7 -- 93
2021-02-08 03:00:00 7.8 3 Oeste 13 Noroeste 3.2 961.6 -- 93
2021-02-08 02:00:00 7.7 7 Noroeste 12 Noroeste 2.2 963.3 -- 94
2021-02-08 01:00:00 7.4 5 Noroeste 10 Oeste 1.2 964.1 -- 93
2021-02-08 00:00:00 7.3 7 Oeste 13 Oeste 1.2 965.2 -- 93
2021-02-07 23:00:00 7.5 10 Oeste 19 Oeste 0.2 966 -- 92
2021-02-07 22:00:00 7.4 12 Oeste 27 Oeste 0 966.4 -- 91
2021-02-07 21:00:00 7.2 13 Oeste 31 Oeste 0.2 966.8 -- 90
2021-02-07 20:00:00 7.4 14 Oeste 28 Oeste 0 967 -- 86
2021-02-07 19:00:00 7.6 27 Oeste 41 Oeste 0.4 966.7 -- 82
2021-02-07 18:00:00 8.9 22 Oeste 46 Oeste 0 966.1 -- 79
2021-02-07 17:00:00 10.5 27 Oeste 43 Noroeste 0 965.6 -- 63
2021-02-07 16:00:00 10.8 28 Oeste 46 Oeste 0 965.2 -- 59
2021-02-07 15:00:00 12.4 22 Oeste 39 Noroeste 0 965.2 -- 66
2021-02-07 14:00:00 11.2 18 Oeste 29 Oeste 0 965.6 -- 74
2021-02-07 13:00:00 9.5 7 Oeste 13 Oeste 0 966.2 -- 87
2021-02-07 12:00:00 8.4 10 Noroeste 15 Noroeste 0 966.4 -- 91
2021-02-07 11:00:00 8.3 2 Noroeste 7 Este 0 966.1 -- 91
2021-02-07 10:00:00 7.7 3 Oeste 6 Oeste 0 965.7 -- 94
2021-02-07 09:00:00 7.3 0 Calma 6 Sur 0 965.1 -- 94
2021-02-07 08:00:00 7 2 Oeste 8 Oeste 0 964.6 -- 94
2021-02-07 07:00:00 6.8 4 Noroeste 8 Noroeste 0 964.3 -- 94
2021-02-07 06:00:00 7.1 5 Oeste 7 Oeste 0 964.2 -- 94
2021-02-07 05:00:00 7.2 4 Oeste 7 Sudoeste 0 963.8 -- 93
2021-02-07 04:00:00 8 0 Calma 11 Oeste 0 963.9 -- 94
2021-02-07 03:00:00 8.1 3 Sudoeste 6 Sur 0.2 963.7 -- 93
2021-02-07 02:00:00 8 5 Oeste 9 Oeste 0 963.8 -- 93
2021-02-07 01:00:00 8.4 3 Sudoeste 5 Sudoeste 0 963.4 -- 93
2021-02-07 00:00:00 7.7 0 Calma 5 Noroeste 0 963.4 -- 93
2021-02-06 23:00:00 7.9 3 Oeste 8 Noroeste 0 962.6 -- 92
2021-02-06 22:00:00 9.2 3 Sudoeste 9 Sur 0 961.9 -- 90
2021-02-06 21:00:00 9.8 5 Sudoeste 14 Oeste 6 961.6 -- 89
2021-02-06 20:00:00 10.7 11 Oeste 17 Oeste 0 961.1 -- 88
2021-02-06 19:00:00 11.9 7 Oeste 12 Oeste 0 960.4 -- 78
2021-02-06 18:00:00 12.5 6 Oeste 12 Oeste 0 959.6 -- 75
2021-02-06 17:00:00 13.5 4 Sudoeste 17 Oeste 0 959.3 -- 70
2021-02-06 16:00:00 12 14 Oeste 23 Oeste 0 958.9 -- 76
2021-02-06 15:00:00 11.8 12 Oeste 23 Oeste 0 959.2 -- 78
2021-02-06 14:00:00 12.7 8 Sudoeste 19 Sudoeste 0 959.3 -- 72
2021-02-06 13:00:00 11.5 2 Noroeste 9 Noroeste 0.2 959.6 -- 81
2021-02-06 12:00:00 10.8 3 Sudoeste 10 Sudeste 0 959.6 -- 89
2021-02-06 11:00:00 9.8 4 Sur 9 Este 0.2 959.3 -- 92
2021-02-06 10:00:00 9.6 7 Nordeste 12 Nordeste 0.4 958.8 -- 93
2021-02-06 09:00:00 9.3 3 Este 12 Sudeste 0.2 958.4 -- 93
2021-02-06 08:00:00 9.2 5 Este 9 Este 0.2 957.8 -- 93
2021-02-06 07:00:00 9.2 5 Este 11 Nordeste 0 957.8 -- 93
2021-02-06 06:00:00 9.3 5 Este 8 Este 0 957.8 -- 93
2021-02-06 05:00:00 9.7 4 Nordeste 8 Este 0.2 957.9 -- 93
2021-02-06 04:00:00 9.8 5 Nordeste 8 Nordeste 0 958.2 -- 93
2021-02-06 03:00:00 10 5 Este 8 Nordeste 0.2 958.3 -- 92
2021-02-06 02:00:00 10 2 Nordeste 10 Este 0 958.9 -- 92
2021-02-06 01:00:00 10.3 7 Sudeste 11 Sudeste 0 959.2 -- 91
2021-02-06 00:00:00 10 4 Este 8 Sudeste 0 959.4 -- 92
2021-02-05 23:00:00 10.1 6 Noroeste 15 Oeste 0.4 959.1 -- 90
2021-02-05 22:00:00 10.5 8 Oeste 22 Noroeste 0.2 959.5 -- 89
2021-02-05 21:00:00 10.8 17 Oeste 44 Sudoeste 0.2 959.5 -- 90
2021-02-05 20:00:00 12.1 7 Oeste 15 Oeste 0 958.2 -- 83
2021-02-05 19:00:00 13.2 8 Noroeste 14 Norte 0 958 -- 73
2021-02-05 18:00:00 15.1 3 Este 17 Sudeste 0 958.1 -- 63
2021-02-05 17:00:00 15.7 7 Nordeste 18 Este 0 958 -- 58
2021-02-05 16:00:00 15.6 6 Sudeste 19 Este 0 959.3 -- 56
2021-02-05 15:00:00 15.8 10 Este 20 Este 0 959.5 -- 59
2021-02-05 14:00:00 15.3 8 Este 17 Este 0 960.6 -- 65
2021-02-05 13:00:00 15.1 5 Este 12 Este 0 961.6 -- 67
2021-02-05 12:00:00 14.1 4 Sur 13 Oeste 0 962 -- 72
2021-02-05 11:00:00 12.6 4 Este 25 Noroeste 0 962.8 -- 81
2021-02-05 10:00:00 10.9 8 Oeste 14 Noroeste 0 963 -- 89
2021-02-05 09:00:00 9.7 -- -- -- -- -- 962.9 -- 89
2021-02-05 08:00:00 -- -- -- -- -- -- -- -- --
2021-02-05 07:00:00 -- -- -- -- -- -- -- -- --
2021-02-05 06:00:00 -- -- -- -- -- -- -- -- --
2021-02-05 05:00:00 -- -- -- -- -- -- -- -- --
2021-02-05 04:00:00 -- -- -- -- -- -- -- -- --
2021-02-05 03:00:00 -- -- -- -- -- -- -- -- --
2021-02-05 02:00:00 -- -- -- -- -- -- -- -- --
2021-02-05 01:00:00 -- -- -- -- -- -- -- -- --
2021-02-05 00:00:00 -- -- -- -- -- -- -- -- --
2021-02-04 23:00:00 -- -- -- -- -- -- -- -- --
2021-02-04 22:00:00 -- -- -- -- -- -- -- -- --
2021-02-04 21:00:00 -- -- -- -- -- -- -- -- --
2021-02-04 20:00:00 -- -- -- -- -- -- -- -- --
2021-02-04 19:00:00 -- -- -- -- -- -- -- -- --
2021-02-04 18:00:00 -- -- -- -- -- -- -- -- --
2021-02-04 17:00:00 -- -- -- -- -- -- -- -- --
2021-02-04 16:00:00 -- -- -- -- -- -- -- -- --
2021-02-04 15:00:00 -- -- -- -- -- -- -- -- --
2021-02-04 14:00:00 -- -- -- -- -- -- -- -- --
2021-02-04 13:00:00 11.5 8 Este 17 Nordeste 0 967.1 -- 91
2021-02-04 12:00:00 10.7 11 Este 17 Nordeste 0 967.5 -- 92
2021-02-04 11:00:00 10.2 9 Este 15 Este 0 967.5 -- 92
2021-02-04 10:00:00 10 8 Este 14 Nordeste 0 967.6 -- 93
2021-02-04 09:00:00 9.9 8 Este 12 Este 0 967.9 -- 93
2021-02-04 08:00:00 9.9 6 Este 10 Nordeste 0 968.1 -- 94
2021-02-04 07:00:00 9.9 7 Nordeste 10 Este 0 968.4 -- 94
2021-02-04 06:00:00 9.9 6 Este 9 Este 0 968.4 -- 94
2021-02-04 05:00:00 10 3 Este 5 Sudeste 0 968.9 -- 93
2021-02-04 04:00:00 10.1 2 Este 4 Sur 0 969.6 -- 93
2021-02-04 03:00:00 10.1 0 Calma 4 Norte 0 969.9 -- 92
2021-02-04 02:00:00 10.1 3 Noroeste 23 Oeste 0 970.3 -- 92
2021-02-04 01:00:00 10.2 9 Oeste 21 Noroeste 0.6 970.8 -- 93
2021-02-04 00:00:00 10.2 10 Oeste 24 Oeste 0.2 970.6 -- 92
2021-02-03 23:00:00 10.7 11 Oeste 29 Oeste 0.4 970.5 -- 92
2021-02-03 22:00:00 12 21 Oeste 35 Noroeste 0 970.3 -- 92
2021-02-03 21:00:00 11.7 3 Este 6 Este 0 969.6 -- 92
2021-02-03 20:00:00 12.4 3 Este 5 Este 0.2 969.8 -- 91
2021-02-03 19:00:00 12.7 2 Nordeste 7 Nordeste 0 969.7 -- 89
2021-02-03 18:00:00 13 2 Nordeste 12 Oeste 0 970 -- 88
2021-02-03 17:00:00 12.8 7 Oeste 16 Oeste 0 970.3 -- 89
2021-02-03 16:00:00 12.9 12 Oeste 21 Noroeste 0 970.9 -- 89
2021-02-03 15:00:00 12.8 9 Noroeste 17 Oeste 0 971.2 -- 88
2021-02-03 14:00:00 12.4 10 Oeste 21 Noroeste 0 971.8 -- 89
2021-02-03 13:00:00 11.9 12 Oeste 19 Oeste 0 972.5 -- 89
2021-02-03 12:00:00 11.3 11 Oeste 16 Oeste 0 973.1 -- 91
2021-02-03 11:00:00 11 9 Noroeste 16 Oeste 0.2 973 -- 92
2021-02-03 10:00:00 10.6 9 Noroeste 16 Noroeste 0 972.6 -- 89
2021-02-03 09:00:00 10.4 7 Oeste 13 Noroeste 0 972 -- 86
2021-02-03 08:00:00 10.2 6 Noroeste 14 Noroeste 0 971.8 -- 88
2021-02-03 07:00:00 10.4 10 Noroeste 15 Noroeste 0 971.7 -- 85
2021-02-03 06:00:00 10.3 6 Oeste 11 Oeste 0 971.8 -- 82
2021-02-03 05:00:00 10.1 6 Noroeste 8 Noroeste 0 972.1 -- 85
2021-02-03 04:00:00 10.4 4 Oeste 15 Oeste 0 972.5 -- 82
2021-02-03 03:00:00 11 12 Oeste 18 Oeste 0 972.9 -- 78
2021-02-03 02:00:00 11.2 8 Oeste 21 Oeste 0 973.3 -- 77
2021-02-03 01:00:00 11.2 13 Oeste 22 Oeste 0 973.4 -- 75
2021-02-03 00:00:00 10.3 10 Oeste 15 Oeste 0 973.6 -- 83
2021-02-02 23:00:00 10.8 8 Oeste 14 Oeste 0 974 -- 78
2021-02-02 22:00:00 11 12 Oeste 18 Oeste 0 974 -- 77
2021-02-02 21:00:00 11.6 6 Sudoeste 13 Sudoeste 0 974.1 -- 86
2021-02-02 20:00:00 11.8 8 Sudoeste 23 Oeste 0 974.2 -- 84
2021-02-02 19:00:00 12.2 16 Oeste 32 Oeste 0 973.7 -- 84
2021-02-02 18:00:00 13.1 17 Oeste 28 Oeste 0 973.5 -- 83
2021-02-02 17:00:00 13.8 17 Oeste 29 Oeste 0 973.4 -- 80
2021-02-02 16:00:00 14.6 17 Oeste 29 Oeste 0 973.6 -- 76
2021-02-02 15:00:00 14.6 19 Oeste 30 Noroeste 0 974.5 -- 80
2021-02-02 14:00:00 14.5 21 Oeste 31 Oeste 0 975 -- 80
2021-02-02 13:00:00 13 18 Oeste 34 Oeste 0 976 -- 89
2021-02-02 12:00:00 12.4 14 Oeste 27 Sudoeste 0 976.5 -- 89
2021-02-02 11:00:00 12 10 Oeste 24 Oeste 0 976.3 -- 87
2021-02-02 10:00:00 11.3 12 Oeste 20 Oeste 0 976 -- 89
2021-02-02 09:00:00 10.6 8 Oeste 14 Oeste 0 975.9 -- 92
2021-02-02 08:00:00 10.5 4 Oeste 8 Oeste 0 975.5 -- 91
2021-02-02 07:00:00 10.5 6 Oeste 14 Oeste 0 975.6 -- 91
2021-02-02 06:00:00 10.2 8 Oeste 13 Oeste 0 975.9 -- 89
2021-02-02 05:00:00 10 8 Noroeste 12 Noroeste 0 976 -- 89
2021-02-02 04:00:00 9.7 6 Oeste 13 Oeste 0 976.3 -- 87
2021-02-02 03:00:00 9.8 6 Sudoeste 14 Oeste 0 976.1 -- 86
2021-02-02 02:00:00 9.2 8 Oeste 18 Oeste 0 976.6 -- 90
2021-02-02 01:00:00 6.7 4 Sudoeste 9 Oeste 0 976.9 -- 91
2021-02-02 00:00:00 7 4 Norte 13 Oeste 0 976.7 -- 89
2021-02-01 23:00:00 7.4 6 Oeste 13 Sudoeste 0 976.7 -- 86
2021-02-01 22:00:00 9.7 8 Sudoeste 17 Sur 0 976.5 -- 84
2021-02-01 21:00:00 10 6 Oeste 15 Oeste 0 976.2 -- 81
2021-02-01 20:00:00 11.4 12 Oeste 24 Oeste 0 975.4 -- 79
2021-02-01 19:00:00 12.7 15 Oeste 31 Oeste 0 974.9 -- 74
2021-02-01 18:00:00 14.4 22 Oeste 56 Oeste 0 975 -- 68
2021-02-01 17:00:00 14.8 33 Oeste 51 Oeste 0 974.5 -- 67
2021-02-01 16:00:00 14.5 32 Oeste 56 Oeste 0 974.7 -- 66
2021-02-01 15:00:00 14.9 37 Oeste 54 Oeste 0 974.3 -- 65
2021-02-01 14:00:00 14.9 32 Oeste 54 Oeste 0 974.9 -- 68
2021-02-01 13:00:00 14.3 28 Oeste 46 Oeste 0 975.5 -- 69
2021-02-01 12:00:00 13.7 27 Oeste 41 Oeste 0 975.3 -- 71
2021-02-01 11:00:00 12.5 19 Oeste 29 Oeste 0 974.8 -- 73
2021-02-01 10:00:00 10.5 7 Sudoeste 21 Sudoeste 0 974.5 -- 81
2021-02-01 09:00:00 9.6 6 Sudoeste 20 Sudoeste 0 973.6 -- 83
2021-02-01 08:00:00 10.3 12 Sudoeste 32 Oeste 0 972.7 -- 82
2021-02-01 07:00:00 10.1 15 Oeste 36 Sudoeste 0 972 -- 83
2021-02-01 06:00:00 10.6 20 Oeste 40 Sudoeste 0 971.4 -- 82
2021-02-01 05:00:00 10.9 22 Oeste 38 Oeste 0 971.5 -- 82
2021-02-01 04:00:00 10.9 23 Oeste 35 Oeste 0 971.2 -- 84
2021-02-01 03:00:00 11.6 17 Oeste 37 Oeste 0 971.4 -- 83
2021-02-01 02:00:00 12.3 17 Oeste 40 Oeste 0 971.5 -- 84
2021-02-01 01:00:00 12.9 23 Oeste 50 Oeste 0 971.3 -- 85
2021-02-01 00:00:00 13.1 24 Oeste 48 Oeste 0 971 -- 86
2021-01-31 23:00:00 13.1 26 Oeste 52 Oeste 0 970.7 -- 87
2021-01-31 22:00:00 13.5 32 Oeste 56 Oeste 0 970.4 -- 87
2021-01-31 21:00:00 13.9 35 Oeste 60 Oeste 0 970.1 -- 87
2021-01-31 20:00:00 14.1 31 Oeste 57 Oeste 0 970.3 -- 87
2021-01-31 19:00:00 14.5 30 Oeste 50 Oeste 0 970.6 -- 85
2021-01-31 18:00:00 14.7 28 Oeste 54 Oeste 0 970.4 -- 85
2021-01-31 17:00:00 14.1 25 Oeste 48 Oeste 0 970.5 -- 85
2021-01-31 16:00:00 14.1 26 Oeste 57 Oeste 0 970.9 -- 81
2021-01-31 15:00:00 13.6 30 Oeste 56 Oeste 0 971.2 -- 81
2021-01-31 14:00:00 13 32 Oeste 55 Oeste 0 972.1 -- 80
2021-01-31 13:00:00 12.2 32 Oeste 51 Oeste 0 972.6 -- 81
2021-01-31 12:00:00 11.8 27 Oeste 49 Oeste 0 973.2 -- 81
2021-01-31 11:00:00 11.1 26 Oeste 43 Oeste 0 973.1 -- 82
2021-01-31 10:00:00 9.9 19 Oeste 42 Oeste 0 973 -- 82
2021-01-31 09:00:00 9.8 27 Oeste 39 Oeste 0 972.5 -- 76
2021-01-31 08:00:00 9.3 12 Sudoeste 25 Sudoeste 0 972.4 -- 73
2021-01-31 07:00:00 8.5 13 Oeste 22 Oeste 0 972.1 -- 74
2021-01-31 06:00:00 8.9 12 Sudoeste 31 Oeste 0 971.8 -- 72
2021-01-31 05:00:00 7.9 10 Oeste 33 Oeste 0 971.7 -- 77
2021-01-31 04:00:00 8.3 16 Oeste 42 Oeste 0 971.7 -- 74
2021-01-31 03:00:00 8.7 24 Oeste 40 Oeste 0 971.6 -- 72
2021-01-31 02:00:00 9 22 Oeste 54 Oeste 0 971.5 -- 72
2021-01-31 01:00:00 9.4 34 Oeste 50 Oeste 0 970.7 -- 74
2021-01-31 00:00:00 9 30 Oeste 50 Oeste 0 970.7 -- 74
2021-01-30 23:00:00 9.5 28 Oeste 50 Oeste 0 971.1 -- 70
2021-01-30 22:00:00 10.2 26 Oeste 49 Sudoeste 0 971 -- 66
2021-01-30 21:00:00 10.5 22 Oeste 46 Sudoeste 0 970.8 -- 65
2021-01-30 20:00:00 11.1 26 Oeste 53 Sudoeste 0 970.5 -- 67
2021-01-30 19:00:00 11.6 32 Oeste 62 Oeste 0 969.8 -- 64
2021-01-30 18:00:00 13.4 38 Oeste 67 Oeste 0 969.7 -- 57
2021-01-30 17:00:00 13.8 37 Oeste 68 Oeste 0 969.5 -- 51
2021-01-30 16:00:00 14 45 Oeste 71 Oeste 0 969.5 -- 52
2021-01-30 15:00:00 14.1 42 Oeste 64 Oeste 0 970.1 -- 57
2021-01-30 14:00:00 13.7 37 Oeste 67 Oeste 0 970.4 -- 61
2021-01-30 13:00:00 13.3 39 Oeste 68 Oeste 0 971.1 -- 65
2021-01-30 12:00:00 12.8 31 Oeste 57 Oeste 0 972 -- 70
2021-01-30 11:00:00 11.9 33 Oeste 57 Oeste 0 971.5 -- 77
2021-01-30 10:00:00 11.2 25 Oeste 50 Oeste 0 971.4 -- 86
2021-01-30 09:00:00 11 21 Oeste 44 Oeste 0 971.1 -- 88
2021-01-30 08:00:00 11 19 Oeste 34 Sudoeste 0 971.4 -- 92
2021-01-30 07:00:00 10.8 12 Oeste 35 Noroeste 1.4 971.8 -- 92
2021-01-30 06:00:00 11.1 21 Oeste 40 Oeste 0.4 972.3 -- 89
2021-01-30 05:00:00 11.5 17 Oeste 35 Oeste 0 972.1 -- 86
2021-01-30 04:00:00 11.5 14 Oeste 27 Oeste 0 973 -- 87
2021-01-30 03:00:00 11.3 13 Oeste 28 Oeste 0 974.1 -- 90
2021-01-30 02:00:00 11.4 12 Oeste 21 Oeste 0 974.7 -- 92
2021-01-30 01:00:00 11.5 17 Oeste 35 Oeste 0 975.8 -- 91
2021-01-30 00:00:00 11.3 13 Oeste 30 Oeste 0 976.8 -- 91
2021-01-29 23:00:00 11.5 14 Oeste 22 Oeste 0 977.2 -- 90
2021-01-29 22:00:00 11.7 12 Oeste 32 Oeste 0 977.3 -- 90
2021-01-29 21:00:00 11.9 13 Oeste 22 Oeste 0 977.6 -- 90
2021-01-29 20:00:00 11.8 7 Oeste 22 Oeste 0 977.5 -- 90
2021-01-29 19:00:00 11.7 16 Oeste 23 Oeste 0 977.6 -- 89
2021-01-29 18:00:00 12.1 16 Oeste 24 Oeste 0 977.7 -- 87
2021-01-29 17:00:00 13.2 15 Oeste 24 Noroeste 0 977.6 -- 83
2021-01-29 16:00:00 13.9 17 Oeste 24 Oeste 0 977.8 -- 79
2021-01-29 15:00:00 14.3 12 Oeste 20 Oeste 0 978.2 -- 77
2021-01-29 14:00:00 12.9 9 Oeste 18 Oeste 0 978.9 -- 82
2021-01-29 13:00:00 12.2 9 Oeste 15 Noroeste 0 979.7 -- 84
2021-01-29 12:00:00 11.5 8 Oeste 12 Oeste 0 980.3 -- 86
2021-01-29 11:00:00 10.8 5 Oeste 10 Sudoeste 0 980.2 -- 91
2021-01-29 10:00:00 10.4 5 Oeste 9 Sudoeste 0 980 -- 92
2021-01-29 09:00:00 10.3 3 Sudoeste 6 Noroeste 0 979.8 -- 92
2021-01-29 08:00:00 10.3 3 Oeste 12 Oeste 0 979.5 -- 92
2021-01-29 07:00:00 10.4 4 Oeste 11 Oeste 0 979.3 -- 91
2021-01-29 06:00:00 10.4 3 Noroeste 6 Norte 0 979.5 -- 92
2021-01-29 05:00:00 10.4 2 Este 13 Nordeste 0 979.3 -- 92
2021-01-29 04:00:00 10.3 6 Nordeste 10 Nordeste 0 979.7 -- 93
2021-01-29 03:00:00 10.5 3 Noroeste 10 Norte 0 980 -- 93
2021-01-29 02:00:00 10.8 0 Calma 9 Norte 0 980.6 -- 93
2021-01-29 01:00:00 11 2 Noroeste 12 Noroeste 0 980.9 -- 94
2021-01-29 00:00:00 11.2 6 Noroeste 12 Noroeste 0 981 -- 94
2021-01-28 23:00:00 10.2 5 Oeste 8 Oeste 0 980.9 -- 94
2021-01-28 22:00:00 7.6 2 Sudoeste 4 Sur 0 980.7 -- 92
2021-01-28 21:00:00 8.7 3 Noroeste 4 Noroeste 0 980.7 -- 91
2021-01-28 20:00:00 10.3 3 Oeste 6 Noroeste 0 980.6 -- 89
2021-01-28 19:00:00 12.5 2 Noroeste 12 Noroeste 0 980.4 -- 85
2021-01-28 18:00:00 14.4 8 Noroeste 14 Oeste 0 980.5 -- 82
2021-01-28 17:00:00 14.7 3 Oeste 12 Oeste 0 980.6 -- 80
2021-01-28 16:00:00 14.7 6 Oeste 12 Oeste 0 980.9 -- 82
2021-01-28 15:00:00 14.1 3 Noroeste 9 Noroeste 0 981.5 -- 82
2021-01-28 14:00:00 13.8 5 Noroeste 10 Oeste 0 982.4 -- 84
2021-01-28 13:00:00 13.2 7 Noroeste 12 Noroeste 0 983 -- 88
2021-01-28 12:00:00 12.6 3 Oeste 6 Oeste 0 983.3 -- 91
2021-01-28 11:00:00 12 4 Sudoeste 8 Sudoeste 0 982.8 -- 93
2021-01-28 10:00:00 11.4 5 Oeste 12 Sudoeste 0 982.4 -- 93
2021-01-28 09:00:00 11.2 4 Sudoeste 8 Sur 0 982.1 -- 93
2021-01-28 08:00:00 11.6 3 Sudoeste 7 Sudoeste 0 981.8 -- 93
2021-01-28 07:00:00 11.8 3 Oeste 8 Oeste 0 981.9 -- 93
2021-01-28 06:00:00 11.8 4 Oeste 9 Oeste 0 981.9 -- 93
2021-01-28 05:00:00 12 4 Oeste 7 Oeste 0 982.2 -- 93
2021-01-28 04:00:00 12.1 4 Oeste 10 Oeste 0 982.5 -- 93
2021-01-28 03:00:00 12.2 6 Oeste 12 Oeste 0 982.8 -- 93
2021-01-28 02:00:00 12.1 7 Oeste 12 Sudoeste 0 983 -- 93
2021-01-28 01:00:00 12.3 7 Oeste 13 Oeste 0 983.2 -- 93
2021-01-28 00:00:00 12.5 8 Oeste 12 Oeste 0 983.1 -- 93
2021-01-27 23:00:00 11.4 4 Noroeste 6 Noroeste 0 983 -- 93
2021-01-27 22:00:00 10.9 4 Oeste 11 Oeste 0 983 -- 92
2021-01-27 21:00:00 11.7 6 Sudoeste 10 Oeste 0 983.1 -- 92
2021-01-27 20:00:00 12 3 Sudoeste 6 Noroeste 0 982.8 -- 88
2021-01-27 19:00:00 14.1 5 Noroeste 9 Oeste 0 982.6 -- 84
2021-01-27 18:00:00 16.5 7 Noroeste 15 Oeste 0 982.3 -- 80
2021-01-27 17:00:00 16.9 7 Noroeste 17 Norte 0 982.4 -- 77
2021-01-27 16:00:00 16.7 11 Noroeste 21 Noroeste 0 982.3 -- 78
2021-01-27 15:00:00 15.8 13 Oeste 18 Oeste 0 982.4 -- 81
2021-01-27 14:00:00 15.3 7 Oeste 22 Oeste 0 983 -- 83
2021-01-27 13:00:00 14.4 9 Oeste 17 Oeste 0 983.7 -- 85
2021-01-27 12:00:00 13.9 8 Oeste 14 Oeste 0 983.7 -- 87
2021-01-27 11:00:00 13.5 6 Noroeste 14 Noroeste 0 983.1 -- 90
2021-01-27 10:00:00 13.1 9 Oeste 18 Oeste 0 982.7 -- 92
2021-01-27 09:00:00 13 10 Oeste 15 Noroeste 0 982.1 -- 92
2021-01-27 08:00:00 13.3 8 Oeste 18 Oeste 0 981.7 -- 91
2021-01-27 07:00:00 13.7 12 Noroeste 23 Oeste 0 981.5 -- 91
2021-01-27 06:00:00 13.9 10 Oeste 24 Oeste 0 980.8 -- 91
2021-01-27 05:00:00 14.2 13 Oeste 22 Oeste 0 981 -- 91
2021-01-27 04:00:00 14.3 8 Oeste 18 Oeste 0 981.2 -- 91
2021-01-27 03:00:00 14.5 10 Oeste 24 Oeste 0 981.4 -- 92
2021-01-27 02:00:00 14.6 8 Oeste 18 Oeste 0 981.4 -- 92
2021-01-27 01:00:00 14.6 8 Sudoeste 17 Oeste 0 981.6 -- 92
2021-01-27 00:00:00 14.3 5 Oeste 9 Oeste 0 981.4 -- 93
2021-01-26 23:00:00 14.4 4 Oeste 15 Oeste 0 981.2 -- 92
2021-01-26 22:00:00 14.6 10 Oeste 17 Oeste 0 981.4 -- 92
2021-01-26 21:00:00 14.6 12 Oeste 26 Oeste 0 981.3 -- 92
2021-01-26 20:00:00 14.8 13 Oeste 20 Oeste 0 981 -- 89
2021-01-26 19:00:00 14.9 9 Oeste 20 Oeste 0 980.4 -- 88
2021-01-26 18:00:00 15.2 8 Noroeste 23 Noroeste 0 979.9 -- 86
2021-01-26 17:00:00 15.4 10 Noroeste 19 Noroeste 0 979.8 -- 85
2021-01-26 16:00:00 15.4 12 Noroeste 26 Noroeste 0 979.6 -- 83
2021-01-26 15:00:00 15.2 17 Oeste 26 Oeste 0 979.7 -- 83
2021-01-26 14:00:00 14.9 15 Oeste 30 Oeste 0 980.2 -- 86
2021-01-26 13:00:00 14.4 17 Oeste 28 Oeste 0 980.7 -- 86
2021-01-26 12:00:00 13.8 13 Oeste 22 Oeste 0 980.7 -- 89
2021-01-26 11:00:00 12.9 8 Oeste 22 Oeste 0 980.4 -- 91
2021-01-26 10:00:00 12.6 10 Oeste 25 Oeste 0 980 -- 92
2021-01-26 09:00:00 12.7 15 Oeste 29 Oeste 0 979.3 -- 91
2021-01-26 08:00:00 12.7 15 Oeste 25 Oeste 0 978.7 -- 90
2021-01-26 07:00:00 12.7 14 Oeste 30 Oeste 0 977.9 -- 90
2021-01-26 06:00:00 12.8 18 Oeste 28 Oeste 0 977.7 -- 89
2021-01-26 05:00:00 12.8 19 Oeste 36 Oeste 0 977.4 -- 89
2021-01-26 04:00:00 13 19 Oeste 33 Oeste 0 977.2 -- 89
2021-01-26 03:00:00 13.1 18 Oeste 30 Oeste 0 976.7 -- 88
2021-01-26 02:00:00 13.2 18 Oeste 34 Oeste 0 975.9 -- 88
2021-01-26 01:00:00 13.5 17 Oeste 26 Oeste 0 975.5 -- 87
2021-01-26 00:00:00 13.7 17 Oeste 29 Oeste 0 975 -- 87
2021-01-25 23:00:00 13.9 14 Oeste 37 Oeste 0 974.4 -- 85
2021-01-25 22:00:00 14.1 19 Oeste 32 Sudoeste 0 973.4 -- 84
2021-01-25 21:00:00 14.2 22 Oeste 41 Oeste 0 972.7 -- 82
2021-01-25 20:00:00 14.5 24 Oeste 46 Oeste 0 971.7 -- 80
2021-01-25 19:00:00 14.9 31 Oeste 54 Oeste 0 970.5 -- 78
2021-01-25 18:00:00 15.5 30 Oeste 52 Oeste 0 969.9 -- 76
2021-01-25 17:00:00 16.2 31 Oeste 56 Oeste 0 969.4 -- 75
2021-01-25 16:00:00 15.4 34 Oeste 58 Oeste 0 969.3 -- 77
2021-01-25 15:00:00 15.1 32 Oeste 62 Oeste 0 969 -- 78
2021-01-25 14:00:00 14.9 36 Oeste 56 Oeste 0 969.4 -- 80
2021-01-25 13:00:00 14.1 31 Oeste 50 Oeste 0 970.1 -- 85
2021-01-25 12:00:00 13.3 27 Oeste 44 Oeste 0.2 970 -- 89
2021-01-25 11:00:00 12 19 Oeste 33 Oeste 0.4 970 -- 94
2021-01-25 10:00:00 10.9 10 Oeste 22 Oeste 1.4 970 -- 93
2021-01-25 09:00:00 10.7 13 Oeste 31 Sudoeste 0.2 969.9 -- 92
2021-01-25 08:00:00 10.6 21 Oeste 32 Oeste 0 969.8 -- 92
2021-01-25 07:00:00 10.8 18 Oeste 35 Oeste 0.4 970.1 -- 92
2021-01-25 06:00:00 11 18 Oeste 35 Sudoeste 0 970.2 -- 90
2021-01-25 05:00:00 10.6 16 Oeste 24 Oeste 0 970.7 -- 91
2021-01-25 04:00:00 10 9 Oeste 29 Oeste 0 971.4 -- 93
2021-01-25 03:00:00 10.2 18 Oeste 28 Oeste 0.2 971.9 -- 92
2021-01-25 02:00:00 10.5 17 Oeste 30 Oeste 0 972.6 -- 89
2021-01-25 01:00:00 10.6 13 Oeste 23 Oeste 0 972.8 -- 85
2021-01-25 00:00:00 10.7 12 Oeste 21 Oeste 0 972.9 -- 84